Time;durP1;ratioP1;P1;durP2;ratioP2;P2;SDS_P1;SDS_P2;PMS_P1;PMS_P2;Temp;Humidity;BMP_temperature;BMP_pressure;BME280_temperature;BME280_humidity;BME280_pressure;Samples;Min_cycle;Max_cycle;Signal;HPM_P1;HPM_P2
2024/03/13 00:02:02;;;;;;;21.33;12.18;;;11.60;98.30;;;;;;5057838;28;20041;-78
2024/03/13 00:04:34;;;;;;;20.95;11.60;;;11.60;98.30;;;;;;5049796;28;20396;-74
2024/03/13 00:07:00;;;;;;;19.83;12.60;;;11.60;98.20;;;;;;5041909;28;20068;-78
2024/03/13 00:09:26;;;;;;;23.83;12.60;;;11.50;98.20;;;;;;5057620;28;20399;-75
2024/03/13 00:11:52;;;;;;;23.92;11.70;;;11.60;98.20;;;;;;5056469;28;20041;-77
2024/03/13 00:14:18;;;;;;;24.08;12.07;;;11.50;98.20;;;;;;5053929;28;20040;-78
2024/03/13 00:16:44;;;;;;;24.23;11.75;;;11.60;98.30;;;;;;5055681;28;20028;-75
2024/03/13 00:19:10;;;;;;;20.90;10.35;;;11.50;98.20;;;;;;5052201;28;20195;-79
2024/03/13 00:21:36;;;;;;;21.60;10.85;;;11.50;98.30;;;;;;5058717;28;20059;-78
2024/03/13 00:24:02;;;;;;;20.10;10.73;;;11.50;98.30;;;;;;5059738;28;20032;-74
2024/03/13 00:26:29;;;;;;;22.95;10.30;;;11.50;98.20;;;;;;5055812;28;20032;-75
2024/03/13 00:28:55;;;;;;;21.33;9.45;;;11.50;98.10;;;;;;5056180;28;20036;-75
2024/03/13 00:31:20;;;;;;;19.02;9.00;;;11.50;98.10;;;;;;5058303;28;20029;-74
2024/03/13 00:33:46;;;;;;;18.23;9.13;;;11.50;98.10;;;;;;5056992;28;20484;-78
2024/03/13 00:36:12;;;;;;;16.83;8.98;;;11.50;98.00;;;;;;5060965;28;20094;-76
2024/03/13 00:38:38;;;;;;;18.98;9.90;;;11.50;98.00;;;;;;5058163;28;20029;-76
2024/03/13 00:41:03;;;;;;;17.77;8.48;;;11.50;97.90;;;;;;5060115;28;20082;-74
2024/03/13 00:43:32;;;;;;;17.90;8.13;;;11.50;97.80;;;;;;5061742;28;20083;-75
2024/03/13 00:45:59;;;;;;;18.02;7.80;;;11.60;97.70;;;;;;5058072;28;20736;-75
2024/03/13 00:48:31;;;;;;;18.17;8.30;;;11.50;97.70;;;;;;5062390;28;20090;-74
2024/03/13 00:50:58;;;;;;;20.73;8.88;;;11.50;97.70;;;;;;5059922;28;20064;-74
2024/03/13 00:53:24;;;;;;;17.70;8.93;;;11.50;97.60;;;;;;5060028;28;20035;-79
2024/03/13 00:55:49;;;;;;;17.52;8.90;;;11.50;97.70;;;;;;5057884;28;20144;-79
2024/03/13 00:58:16;;;;;;;19.65;7.85;;;11.50;97.60;;;;;;5060195;28;20034;-74
2024/03/13 01:00:42;;;;;;;21.42;9.35;;;11.50;97.50;;;;;;5056328;28;20033;-78
2024/03/13 01:03:09;;;;;;;18.10;8.15;;;11.50;97.50;;;;;;5058914;28;20039;-74
2024/03/13 01:05:35;;;;;;;16.35;7.75;;;11.50;97.40;;;;;;5056985;28;20120;-74
2024/03/13 01:08:00;;;;;;;19.95;6.93;;;11.50;97.50;;;;;;5057290;28;20029;-72
2024/03/13 01:10:27;;;;;;;15.93;7.00;;;11.50;97.40;;;;;;5059767;28;20328;-76
2024/03/13 01:12:53;;;;;;;16.52;6.85;;;11.60;97.20;;;;;;5060610;28;20081;-73
2024/03/13 01:15:20;;;;;;;14.52;6.80;;;11.50;97.10;;;;;;5058749;28;20041;-77
2024/03/13 01:17:46;;;;;;;15.07;6.75;;;11.50;97.20;;;;;;5059528;28;20024;-75
2024/03/13 01:20:17;;;;;;;17.80;6.47;;;11.50;97.10;;;;;;5053566;28;20029;-78
2024/03/13 01:22:45;;;;;;;14.55;6.22;;;11.50;97.10;;;;;;5052598;28;20024;-75
2024/03/13 01:25:11;;;;;;;15.50;6.38;;;11.50;97.10;;;;;;5054755;28;20053;-74
2024/03/13 01:27:41;;;;;;;16.15;6.70;;;11.50;97.10;;;;;;5055514;28;20029;-76
2024/03/13 01:30:08;;;;;;;16.60;6.50;;;11.50;97.10;;;;;;5055573;28;20044;-75
2024/03/13 01:32:34;;;;;;;17.85;6.50;;;11.50;97.20;;;;;;5052790;28;20157;-76
2024/03/13 01:35:00;;;;;;;14.63;6.05;;;11.50;97.20;;;;;;5055096;28;20045;-75
2024/03/13 01:40:16;;;;;;;16.10;6.95;;;11.50;97.10;;;;;;5054898;28;21940;-77
2024/03/13 01:56:59;;;;;;;17.15;6.75;;;11.40;97.30;;;;;;5055072;28;20557;-74
2024/03/13 02:02:27;;;;;;;15.98;7.00;;;11.40;97.40;;;;;;5047822;28;20045;-76
2024/03/13 02:04:54;;;;;;;16.73;6.90;;;11.40;97.40;;;;;;5055032;28;20078;-78
2024/03/13 02:07:22;;;;;;;16.38;7.35;;;11.50;97.40;;;;;;5056552;28;20032;-75
2024/03/13 02:09:50;;;;;;;14.82;6.07;;;11.50;97.30;;;;;;5055405;28;20417;-74
2024/03/13 02:12:16;;;;;;;18.60;6.22;;;11.40;97.40;;;;;;5056001;28;20044;-77
2024/03/13 02:14:42;;;;;;;18.90;6.82;;;11.50;97.50;;;;;;5045551;28;20727;-76
2024/03/13 02:17:09;;;;;;;22.15;6.32;;;11.40;97.60;;;;;;5055742;28;20454;-75
2024/03/13 02:19:39;;;;;;;21.00;6.60;;;11.50;97.60;;;;;;5059238;28;20033;-74
2024/03/13 02:22:06;;;;;;;19.25;6.57;;;11.40;97.50;;;;;;5053665;28;20380;-74
2024/03/13 02:24:33;;;;;;;19.92;7.03;;;11.40;97.50;;;;;;5052731;28;20089;-74
2024/03/13 02:27:00;;;;;;;19.15;6.18;;;11.40;97.50;;;;;;5054090;28;20041;-77
2024/03/13 02:29:26;;;;;;;21.38;6.60;;;11.40;97.60;;;;;;5053960;28;20293;-74
2024/03/13 02:31:52;;;;;;;20.38;6.35;;;11.40;97.60;;;;;;5055542;28;20074;-75
2024/03/13 02:34:18;;;;;;;14.88;5.65;;;11.40;97.60;;;;;;5055838;28;20459;-77
2024/03/13 02:36:46;;;;;;;17.50;5.88;;;11.40;97.50;;;;;;5054950;28;20036;-75
2024/03/13 02:39:17;;;;;;;16.40;5.93;;;11.40;97.50;;;;;;5054725;28;20040;-76
2024/03/13 02:41:44;;;;;;;17.15;6.40;;;11.40;97.60;;;;;;5054682;28;20024;-76
2024/03/13 02:44:10;;;;;;;20.67;7.80;;;11.40;97.70;;;;;;5055695;28;20331;-77
2024/03/13 02:46:35;;;;;;;21.90;7.03;;;11.40;97.70;;;;;;5055960;28;20031;-74
2024/03/13 02:49:01;;;;;;;22.15;6.50;;;11.40;97.70;;;;;;5057162;28;20067;-74
2024/03/13 02:51:27;;;;;;;17.00;7.35;;;11.50;97.70;;;;;;5055468;28;20428;-74
2024/03/13 02:53:52;;;;;;;17.20;7.13;;;11.40;97.60;;;;;;5051466;28;20046;-79
2024/03/13 02:56:18;;;;;;;16.90;7.18;;;11.40;97.60;;;;;;5057963;28;20044;-77
2024/03/13 02:58:46;;;;;;;20.90;7.40;;;11.40;97.70;;;;;;5055236;28;20418;-74
2024/03/13 03:01:12;;;;;;;18.20;7.32;;;11.40;97.70;;;;;;5053696;28;20052;-78
2024/03/13 03:03:39;;;;;;;18.45;7.68;;;11.40;97.70;;;;;;5059206;28;20639;-75
2024/03/13 03:06:06;;;;;;;19.52;7.28;;;11.40;97.80;;;;;;5053757;28;20029;-74
2024/03/13 03:08:33;;;;;;;18.20;7.47;;;11.40;97.80;;;;;;5056898;28;20085;-75
2024/03/13 03:11:03;;;;;;;18.60;7.50;;;11.40;97.80;;;;;;5056512;28;20418;-76
2024/03/13 03:13:29;;;;;;;16.40;6.88;;;11.30;97.80;;;;;;5057224;28;20103;-75
2024/03/13 03:15:54;;;;;;;18.05;7.85;;;11.40;97.80;;;;;;5056673;28;20526;-74
2024/03/13 03:18:20;;;;;;;18.15;7.57;;;11.40;97.80;;;;;;5057817;28;20111;-75
2024/03/13 03:20:46;;;;;;;18.88;9.18;;;11.40;97.80;;;;;;5057818;28;20445;-76
2024/03/13 03:23:13;;;;;;;20.83;9.25;;;11.40;97.80;;;;;;5058224;28;20081;-74
2024/03/13 03:25:39;;;;;;;16.25;8.73;;;11.40;97.70;;;;;;5055433;28;20042;-76
2024/03/13 03:28:05;;;;;;;17.73;9.05;;;11.40;97.70;;;;;;5058473;28;20026;-77
2024/03/13 03:30:30;;;;;;;18.52;9.70;;;11.30;97.80;;;;;;5054583;28;20037;-77
2024/03/13 03:32:58;;;;;;;20.60;9.57;;;11.30;97.90;;;;;;5051996;28;20058;-77
2024/03/13 03:35:24;;;;;;;19.25;10.85;;;11.30;97.90;;;;;;5055116;28;20060;-76
2024/03/13 03:37:51;;;;;;;21.23;10.88;;;11.30;97.70;;;;;;5053284;28;20032;-78
2024/03/13 03:40:17;;;;;;;20.92;10.35;;;11.30;97.70;;;;;;5051651;28;20032;-75
2024/03/13 03:42:43;;;;;;;23.02;10.13;;;11.30;97.70;;;;;;5054314;28;20044;-74
2024/03/13 03:45:08;;;;;;;23.80;9.52;;;11.30;97.60;;;;;;5054124;28;20042;-74
2024/03/13 03:47:35;;;;;;;18.45;10.10;;;11.40;97.60;;;;;;5054869;28;20710;-78
2024/03/13 03:50:01;;;;;;;22.70;10.32;;;11.40;97.60;;;;;;5053569;28;20060;-75
2024/03/13 03:52:27;;;;;;;21.70;9.85;;;11.40;97.50;;;;;;5057011;28;20027;-75
2024/03/13 03:54:53;;;;;;;17.83;9.35;;;11.40;97.50;;;;;;5057516;28;20036;-77
2024/03/13 03:57:19;;;;;;;17.42;8.85;;;11.30;97.50;;;;;;5052592;28;20035;-78
2024/03/13 03:59:45;;;;;;;18.48;9.88;;;11.40;97.50;;;;;;5054820;28;20104;-78
2024/03/13 04:02:16;;;;;;;14.52;8.40;;;11.40;97.40;;;;;;5052961;28;20033;-75
2024/03/13 04:04:43;;;;;;;17.38;8.77;;;11.40;97.30;;;;;;5054877;28;20089;-74
2024/03/13 04:07:11;;;;;;;17.65;9.70;;;11.40;97.30;;;;;;5051835;28;20032;-74
2024/03/13 04:09:37;;;;;;;18.27;9.35;;;11.40;97.30;;;;;;5057089;28;20025;-74
2024/03/13 04:12:03;;;;;;;16.58;8.75;;;11.50;97.20;;;;;;5041928;28;20368;-75
2024/03/13 04:14:28;;;;;;;17.70;8.60;;;11.40;97.10;;;;;;5055218;28;21045;-79
2024/03/13 04:16:54;;;;;;;17.98;9.13;;;11.40;97.10;;;;;;5054862;28;20464;-74
2024/03/13 04:19:21;;;;;;;23.17;9.52;;;11.40;97.20;;;;;;5054147;28;20022;-74
2024/03/13 04:21:47;;;;;;;17.52;8.50;;;11.40;97.10;;;;;;5054617;28;20098;-78
2024/03/13 04:24:13;;;;;;;16.55;9.15;;;11.50;97.10;;;;;;5057481;28;20132;-74
2024/03/13 04:26:39;;;;;;;15.30;8.68;;;11.50;97.00;;;;;;5055725;28;20040;-77
2024/03/13 04:29:06;;;;;;;16.10;9.25;;;11.50;97.10;;;;;;5057370;28;20020;-74
2024/03/13 04:31:33;;;;;;;16.80;8.00;;;11.50;97.00;;;;;;5052973;28;20070;-76
2024/03/13 04:33:59;;;;;;;15.32;8.23;;;11.40;96.90;;;;;;5056666;28;20021;-78
2024/03/13 04:36:25;;;;;;;14.70;8.30;;;11.40;96.90;;;;;;5054626;28;20036;-74
2024/03/13 04:38:51;;;;;;;17.08;8.73;;;11.40;97.00;;;;;;5056457;28;20487;-76
2024/03/13 04:41:19;;;;;;;14.48;8.93;;;11.40;97.00;;;;;;5052648;28;20120;-78
2024/03/13 04:43:46;;;;;;;16.23;8.95;;;11.40;96.90;;;;;;5060746;28;20522;-74
2024/03/13 04:46:16;;;;;;;15.80;8.98;;;11.40;96.90;;;;;;5060550;28;20020;-74
2024/03/13 04:48:43;;;;;;;15.35;8.40;;;11.40;96.90;;;;;;5056148;28;20024;-78
2024/03/13 04:51:09;;;;;;;16.88;8.75;;;11.40;96.90;;;;;;5055353;28;20135;-77
2024/03/13 04:53:35;;;;;;;18.95;8.90;;;11.50;96.90;;;;;;5055465;28;20020;-76
2024/03/13 04:56:03;;;;;;;15.55;9.70;;;11.50;96.80;;;;;;5054483;28;20045;-78
2024/03/13 04:58:29;;;;;;;17.98;10.30;;;11.40;96.80;;;;;;5054704;28;20358;-78
2024/03/13 05:00:55;;;;;;;19.30;10.40;;;11.40;96.80;;;;;;5054600;28;20071;-75
2024/03/13 05:03:21;;;;;;;17.10;9.60;;;11.40;96.60;;;;;;5056363;28;20060;-77
2024/03/13 05:05:46;;;;;;;17.27;9.13;;;11.50;96.60;;;;;;5053237;28;20039;-77
2024/03/13 05:08:16;;;;;;;17.92;9.77;;;11.50;96.40;;;;;;5057643;28;20494;-74
2024/03/13 05:10:43;;;;;;;14.77;9.27;;;11.50;96.50;;;;;;5049144;28;20079;-76
2024/03/13 05:13:09;;;;;;;20.30;10.45;;;11.50;96.50;;;;;;5051735;28;20033;-73
2024/03/13 05:15:34;;;;;;;15.88;10.13;;;11.50;96.30;;;;;;5046830;28;20040;-75
2024/03/13 05:18:01;;;;;;;17.52;9.63;;;11.50;96.40;;;;;;5051897;28;20035;-77
2024/03/13 05:20:28;;;;;;;17.45;10.00;;;11.50;96.40;;;;;;5053792;28;20059;-77
2024/03/13 05:22:54;;;;;;;18.30;10.00;;;11.50;96.40;;;;;;5057569;28;20016;-75
2024/03/13 05:25:22;;;;;;;17.83;9.30;;;11.50;96.30;;;;;;5054135;28;20028;-74
2024/03/13 05:27:50;;;;;;;18.75;9.60;;;11.50;96.30;;;;;;5057572;28;20024;-77
2024/03/13 05:30:16;;;;;;;16.83;8.45;;;11.50;96.30;;;;;;5054056;28;20505;-75
2024/03/13 05:32:45;;;;;;;14.63;9.20;;;11.50;96.30;;;;;;5055554;28;20024;-74
2024/03/13 05:35:12;;;;;;;18.33;9.25;;;11.50;96.30;;;;;;5053820;28;20053;-79
2024/03/13 05:37:39;;;;;;;16.10;8.40;;;11.50;96.30;;;;;;5048803;28;20326;-78
2024/03/13 05:40:39;;;;;;;14.23;7.13;;;11.50;96.30;;;;;;5056466;28;20121;-75
2024/03/13 05:42:58;;;;;;;14.20;7.57;;;11.50;96.20;;;;;;5049753;28;20045;-75
2024/03/13 05:45:24;;;;;;;14.60;7.80;;;11.40;96.20;;;;;;5056007;28;20040;-74
2024/03/13 05:47:49;;;;;;;15.52;7.93;;;11.50;96.00;;;;;;5055588;28;20646;-79
2024/03/13 05:50:17;;;;;;;14.50;7.68;;;11.50;96.10;;;;;;5055920;28;20029;-77
2024/03/13 05:52:47;;;;;;;15.95;7.80;;;11.50;96.10;;;;;;5055543;28;20017;-75
2024/03/13 05:55:13;;;;;;;16.52;7.03;;;11.50;96.10;;;;;;5052581;28;20037;-79
2024/03/13 05:57:39;;;;;;;13.65;7.30;;;11.50;96.10;;;;;;5055879;28;20070;-76
2024/03/13 06:00:13;;;;;;;14.55;6.75;;;11.50;96.00;;;;;;5054570;28;20033;-75
2024/03/13 06:02:41;;;;;;;12.93;7.30;;;11.50;95.90;;;;;;5056337;28;20074;-78
2024/03/13 06:05:17;;;;;;;17.20;6.65;;;11.50;95.90;;;;;;5053850;28;20043;-78
2024/03/13 06:07:42;;;;;;;15.00;6.63;;;11.50;95.90;;;;;;5053742;28;20021;-76
2024/03/13 06:10:10;;;;;;;12.70;6.43;;;11.50;96.00;;;;;;5054279;28;20547;-75
2024/03/13 06:12:36;;;;;;;17.83;6.95;;;11.50;96.00;;;;;;5055435;28;20115;-77
2024/03/13 06:15:06;;;;;;;17.42;6.75;;;11.50;96.00;;;;;;5053474;28;20064;-75
2024/03/13 06:17:35;;;;;;;14.38;7.30;;;11.50;95.90;;;;;;5057437;28;20016;-76
2024/03/13 06:20:03;;;;;;;15.80;7.53;;;11.50;96.00;;;;;;5061126;28;20032;-78
2024/03/13 06:22:29;;;;;;;12.85;6.38;;;11.50;96.00;;;;;;5054460;28;20061;-77
2024/03/13 06:24:56;;;;;;;15.98;6.85;;;11.50;95.90;;;;;;5053865;28;20171;-78
2024/03/13 06:27:27;;;;;;;20.27;9.38;;;11.50;95.80;;;;;;5052294;28;20509;-74
2024/03/13 06:29:58;;;;;;;16.05;9.23;;;11.50;95.90;;;;;;5055050;28;20370;-75
2024/03/13 06:32:28;;;;;;;19.45;9.43;;;11.50;95.80;;;;;;5054086;28;20036;-76
2024/03/13 06:34:55;;;;;;;19.77;10.27;;;11.60;95.80;;;;;;5053265;28;20040;-74
2024/03/13 06:37:25;;;;;;;18.10;9.77;;;11.60;95.80;;;;;;5053226;28;20027;-78
2024/03/13 06:39:53;;;;;;;20.95;10.52;;;11.60;95.70;;;;;;5056325;28;20028;-74
2024/03/13 06:42:20;;;;;;;16.88;9.48;;;11.60;95.70;;;;;;5054030;28;20036;-79
2024/03/13 06:44:45;;;;;;;18.48;9.48;;;11.60;95.70;;;;;;5057095;28;20033;-74
2024/03/13 06:47:11;;;;;;;16.13;9.55;;;11.60;95.70;;;;;;5053917;28;20013;-79
2024/03/13 06:49:40;;;;;;;16.80;8.85;;;11.50;95.70;;;;;;5056129;28;20125;-73
2024/03/13 06:52:12;;;;;;;16.25;9.73;;;11.60;95.80;;;;;;5057473;28;20098;-74
2024/03/13 06:54:41;;;;;;;14.50;8.60;;;11.60;95.80;;;;;;5056231;28;20358;-74
2024/03/13 06:57:10;;;;;;;14.38;8.65;;;11.60;95.70;;;;;;5041726;28;20041;-78
2024/03/13 06:59:37;;;;;;;13.80;7.90;;;11.60;95.80;;;;;;5054145;28;20049;-73
2024/03/13 07:02:02;;;;;;;12.93;7.85;;;11.60;95.80;;;;;;5056820;28;20047;-76
2024/03/13 07:04:29;;;;;;;13.15;7.20;;;11.60;95.80;;;;;;5054906;28;20389;-75
2024/03/13 07:07:00;;;;;;;12.65;7.47;;;11.60;95.70;;;;;;5052958;28;20335;-74
2024/03/13 07:09:29;;;;;;;12.80;6.47;;;11.60;95.70;;;;;;5049822;28;20372;-78
2024/03/13 07:11:55;;;;;;;11.95;6.20;;;11.60;95.70;;;;;;5056659;28;20049;-74
2024/03/13 07:14:22;;;;;;;13.68;6.68;;;11.70;95.60;;;;;;5056075;28;20028;-74
2024/03/13 07:16:48;;;;;;;15.60;6.15;;;11.60;95.60;;;;;;5056552;28;20045;-77
2024/03/13 07:19:14;;;;;;;11.20;5.30;;;11.70;95.60;;;;;;5054644;28;20480;-76
2024/03/13 07:21:40;;;;;;;11.45;4.55;;;11.70;95.40;;;;;;5056781;28;21305;-78
2024/03/13 07:24:07;;;;;;;11.02;4.70;;;11.70;95.40;;;;;;5049926;28;20147;-74
2024/03/13 07:26:33;;;;;;;10.23;4.60;;;11.70;95.20;;;;;;5054923;28;20063;-77
2024/03/13 07:29:00;;;;;;;11.65;4.75;;;11.80;95.20;;;;;;5058738;28;20456;-77
2024/03/13 07:31:26;;;;;;;12.32;4.80;;;11.80;95.10;;;;;;5056471;28;20070;-77
2024/03/13 07:33:54;;;;;;;11.63;4.00;;;11.90;95.00;;;;;;5058617;28;20555;-78
2024/03/13 07:36:23;;;;;;;10.02;3.92;;;11.80;94.90;;;;;;5050683;28;20037;-74
2024/03/13 07:38:49;;;;;;;8.52;3.95;;;11.90;94.90;;;;;;5054325;28;20052;-73
2024/03/13 07:41:15;;;;;;;9.48;3.90;;;11.90;94.80;;;;;;5052375;28;20032;-79
2024/03/13 07:43:42;;;;;;;12.07;4.10;;;11.90;94.80;;;;;;5052070;28;20047;-85
2024/03/13 07:46:11;;;;;;;9.73;3.92;;;11.80;94.70;;;;;;5052375;28;20343;-81
2024/03/13 07:48:37;;;;;;;10.45;3.97;;;11.80;94.70;;;;;;5055401;28;20020;-81
2024/03/13 07:51:06;;;;;;;10.57;4.22;;;11.90;94.70;;;;;;5054653;28;20032;-79
2024/03/13 07:53:33;;;;;;;12.85;4.35;;;12.00;94.70;;;;;;5055316;28;20040;-80
2024/03/13 07:55:59;;;;;;;8.55;3.90;;;12.10;94.70;;;;;;5054279;28;20230;-84
2024/03/13 07:58:25;;;;;;;7.90;3.30;;;12.10;94.50;;;;;;5053486;28;20025;-82
2024/03/13 08:00:52;;;;;;;7.97;3.45;;;12.20;94.50;;;;;;5054240;28;20032;-81
2024/03/13 08:03:17;;;;;;;13.02;3.50;;;12.20;94.10;;;;;;5057808;28;20040;-82
2024/03/13 08:05:44;;;;;;;9.20;4.95;;;12.30;94.00;;;;;;5055341;28;20020;-81
2024/03/13 08:08:10;;;;;;;11.07;3.88;;;12.40;93.90;;;;;;5056884;28;20032;-85
2024/03/13 08:10:37;;;;;;;8.75;3.47;;;12.50;93.60;;;;;;5056809;28;20940;-80
2024/03/13 08:13:04;;;;;;;8.68;3.40;;;12.60;93.40;;;;;;5054965;28;20047;-80
2024/03/13 08:15:29;;;;;;;10.60;3.60;;;12.60;93.20;;;;;;5055557;28;20048;-84
2024/03/13 08:17:56;;;;;;;8.63;2.95;;;12.60;92.70;;;;;;5055826;28;20377;-77
2024/03/13 08:20:22;;;;;;;6.40;2.90;;;12.60;92.40;;;;;;5055211;28;20028;-78
2024/03/13 08:22:48;;;;;;;8.10;2.95;;;12.60;92.00;;;;;;5058591;28;20035;-78
2024/03/13 08:25:17;;;;;;;6.63;3.10;;;12.70;92.20;;;;;;5054374;28;20062;-80
2024/03/13 08:27:43;;;;;;;7.72;2.88;;;12.70;92.10;;;;;;5055362;28;20044;-77
2024/03/13 08:30:11;;;;;;;5.50;2.67;;;12.80;92.00;;;;;;5052366;28;20098;-79
2024/03/13 08:32:39;;;;;;;7.72;3.00;;;12.70;92.00;;;;;;5055852;28;20615;-77
2024/03/13 08:35:05;;;;;;;6.88;2.75;;;12.60;92.10;;;;;;5050488;28;20033;-77
2024/03/13 08:37:31;;;;;;;6.57;2.85;;;12.60;92.20;;;;;;5054257;28;20546;-82
2024/03/13 08:40:00;;;;;;;8.52;3.38;;;12.60;91.90;;;;;;5053863;28;20116;-79
2024/03/13 08:42:27;;;;;;;8.35;2.88;;;12.50;92.20;;;;;;5059655;28;20039;-81
2024/03/13 08:44:53;;;;;;;9.20;3.15;;;12.60;92.40;;;;;;5056047;28;20033;-82
2024/03/13 08:47:20;;;;;;;7.05;3.35;;;12.60;92.30;;;;;;5053217;28;20044;-81
2024/03/13 08:49:46;;;;;;;8.68;3.35;;;12.60;92.40;;;;;;5051753;28;20207;-83
2024/03/13 08:52:14;;;;;;;8.00;3.42;;;12.50;92.20;;;;;;5055159;28;20047;-83
2024/03/13 08:54:43;;;;;;;8.50;3.13;;;12.60;92.30;;;;;;5059106;28;20500;-78
2024/03/13 08:57:09;;;;;;;7.82;2.90;;;12.60;92.30;;;;;;5062854;28;20508;-82
2024/03/13 08:59:35;;;;;;;8.98;2.63;;;12.60;92.40;;;;;;5060508;28;20044;-80
2024/03/13 09:02:05;;;;;;;5.70;2.40;;;12.40;92.10;;;;;;5061266;28;20033;-79
2024/03/13 09:04:33;;;;;;;5.10;2.50;;;12.40;92.20;;;;;;5060577;28;20511;-79
2024/03/13 09:07:00;;;;;;;6.50;2.80;;;12.40;92.00;;;;;;5057558;28;20091;-78
2024/03/13 09:09:27;;;;;;;5.03;2.05;;;12.50;91.90;;;;;;5059733;28;20111;-79
2024/03/13 09:11:53;;;;;;;6.47;2.42;;;12.50;91.70;;;;;;5057359;28;20453;-79
2024/03/13 09:14:19;;;;;;;2.50;1.92;;;12.50;91.60;;;;;;5059145;28;20089;-80
2024/03/13 09:16:47;;;;;;;5.82;1.80;;;12.50;91.40;;;;;;5057318;28;20368;-77
2024/03/13 09:19:13;;;;;;;5.45;1.92;;;12.60;91.30;;;;;;5055003;28;20056;-80
2024/03/13 09:21:39;;;;;;;4.18;1.98;;;12.70;91.10;;;;;;5057780;28;20103;-79
2024/03/13 09:24:06;;;;;;;5.00;1.83;;;12.70;91.00;;;;;;5062673;28;20020;-78
2024/03/13 09:26:35;;;;;;;5.47;1.92;;;12.80;90.70;;;;;;5055136;28;20056;-83
2024/03/13 09:29:01;;;;;;;4.95;2.00;;;12.70;90.90;;;;;;5058801;28;20563;-81
2024/03/13 09:31:27;;;;;;;6.47;1.98;;;12.80;90.90;;;;;;5057392;28;20029;-81
2024/03/13 09:33:53;;;;;;;5.88;2.28;;;12.80;90.70;;;;;;5064532;28;20025;-83
2024/03/13 09:36:18;;;;;;;6.72;2.00;;;12.80;90.70;;;;;;5085792;28;20031;-82
2024/03/13 09:38:44;;;;;;;7.93;1.85;;;12.90;90.50;;;;;;5085860;28;20032;-81
2024/03/13 09:41:13;;;;;;;5.05;1.95;;;12.70;90.40;;;;;;5080933;28;20041;-81
2024/03/13 09:43:39;;;;;;;5.45;2.08;;;12.60;90.60;;;;;;5088857;28;20633;-88
2024/03/13 09:46:07;;;;;;;5.00;1.70;;;12.60;90.50;;;;;;5084414;28;20033;-82
2024/03/13 09:48:44;;;;;;;5.80;2.22;;;12.70;90.60;;;;;;5086784;28;20021;-80
2024/03/13 09:51:11;;;;;;;4.30;2.10;;;12.80;90.60;;;;;;5086867;28;20449;-82
2024/03/13 09:53:40;;;;;;;6.85;2.20;;;12.80;90.70;;;;;;5079150;28;20079;-80
2024/03/13 09:56:13;;;;;;;4.93;1.80;;;12.80;90.80;;;;;;5071655;28;20039;-82
2024/03/13 09:58:44;;;;;;;5.90;2.20;;;12.80;90.90;;;;;;5085130;28;20116;-84
2024/03/13 10:01:19;;;;;;;8.82;3.63;;;12.90;90.90;;;;;;5080812;28;20096;-82
2024/03/13 10:03:50;;;;;;;;;;;12.90;90.60;;;;;;5082849;28;20200;-81
2024/03/13 10:06:19;;;;;;;5.97;2.78;;;13.00;90.40;;;;;;5085943;28;19912;-83
2024/03/13 10:08:47;;;;;;;5.80;2.30;;;13.10;90.40;;;;;;5085505;28;20103;-81
2024/03/13 10:11:14;;;;;;;4.60;2.72;;;13.10;90.20;;;;;;5082335;28;20028;-83
2024/03/13 10:13:43;;;;;;;6.72;2.60;;;13.20;90.30;;;;;;5059946;28;20033;-81
2024/03/13 10:16:10;;;;;;;6.95;2.13;;;13.30;89.80;;;;;;5052823;28;20045;-83
2024/03/13 10:18:41;;;;;;;6.05;2.50;;;13.40;89.40;;;;;;5061009;28;20112;-82
2024/03/13 10:21:23;;;;;;;5.97;2.97;;;13.30;89.20;;;;;;5060003;28;20428;-83
2024/03/13 10:23:52;;;;;;;5.57;2.63;;;13.40;89.30;;;;;;5063981;28;20028;-82
2024/03/13 10:26:21;;;;;;;6.47;3.13;;;13.30;89.20;;;;;;5061514;28;20063;-84
2024/03/13 10:28:50;;;;;;;4.13;2.80;;;13.40;89.30;;;;;;5061582;28;20476;-82
2024/03/13 10:31:16;;;;;;;9.48;4.03;;;13.40;89.30;;;;;;5070433;28;20020;-82
2024/03/13 10:33:42;;;;;;;3.55;2.40;;;13.40;89.40;;;;;;5059322;28;20025;-83
2024/03/13 10:36:08;;;;;;;9.90;2.10;;;13.50;89.30;;;;;;5055202;28;20090;-84
2024/03/13 10:38:36;;;;;;;4.93;2.03;;;13.60;89.20;;;;;;5060805;28;20017;-86
2024/03/13 10:41:04;;;;;;;4.32;2.40;;;13.50;88.90;;;;;;5062725;28;20039;-81
2024/03/13 10:43:31;;;;;;;6.03;2.13;;;13.60;88.90;;;;;;5060584;28;20045;-85
2024/03/13 10:45:57;;;;;;;7.00;2.58;;;13.50;88.60;;;;;;5057272;28;20367;-81
2024/03/13 10:48:26;;;;;;;9.30;2.60;;;13.50;88.30;;;;;;5058569;28;20028;-79
2024/03/13 10:50:53;;;;;;;5.93;2.70;;;13.50;88.20;;;;;;5049577;28;20040;-81
2024/03/13 10:53:19;;;;;;;6.38;2.50;;;13.50;88.10;;;;;;5055210;28;20123;-80
2024/03/13 10:55:45;;;;;;;7.18;2.50;;;13.60;87.90;;;;;;5052472;28;20111;-81
2024/03/13 10:58:24;;;;;;;5.22;2.53;;;13.60;87.70;;;;;;5056571;28;20193;-81
2024/03/13 11:00:49;;;;;;;7.05;3.47;;;13.60;87.90;;;;;;5053154;28;20127;-82
2024/03/13 11:03:16;;;;;;;5.22;1.80;;;13.60;87.90;;;;;;5074270;28;20063;-79
2024/03/13 11:05:42;;;;;;;4.78;2.80;;;13.60;87.50;;;;;;5055374;28;20033;-78
2024/03/13 11:08:08;;;;;;;5.28;2.13;;;13.40;87.70;;;;;;5056245;28;20025;-83
2024/03/13 11:10:36;;;;;;;5.05;2.70;;;13.40;87.90;;;;;;5052526;28;20056;-82
2024/03/13 11:13:06;;;;;;;5.57;2.80;;;13.40;88.00;;;;;;5054896;28;20136;-81
2024/03/13 11:15:37;;;;;;;8.50;4.18;;;13.50;88.00;;;;;;5048594;28;20037;-78
2024/03/13 11:18:04;;;;;;;7.75;3.65;;;13.60;88.10;;;;;;5052861;28;20048;-81
2024/03/13 11:21:02;;;;;;;8.02;2.90;;;13.70;87.70;;;;;;5048021;28;20063;-79
2024/03/13 11:23:37;;;;;;;3.70;1.63;;;13.70;87.30;;;;;;5048897;28;20070;-79
2024/03/13 11:26:09;;;;;;;2.88;1.75;;;13.60;87.30;;;;;;5052613;28;20048;-78
2024/03/13 11:28:37;;;;;;;5.22;2.00;;;13.60;87.80;;;;;;5046574;28;20508;-79
2024/03/13 11:31:06;;;;;;;7.82;1.90;;;13.70;87.40;;;;;;5040599;28;20039;-80
2024/03/13 11:33:32;;;;;;;3.40;1.77;;;13.70;87.40;;;;;;5047748;28;20189;-81
2024/03/13 11:35:58;;;;;;;5.47;2.10;;;13.70;87.50;;;;;;5045492;28;20044;-81
2024/03/13 11:38:24;;;;;;;3.83;2.10;;;13.70;87.70;;;;;;5047992;28;20024;-80
2024/03/13 11:40:54;;;;;;;5.78;1.95;;;13.60;87.50;;;;;;5045282;28;20669;-85
2024/03/13 11:43:26;;;;;;;5.28;2.40;;;13.60;87.70;;;;;;5047795;28;20075;-85
2024/03/13 11:45:52;;;;;;;3.53;1.83;;;13.60;87.50;;;;;;5060287;28;20045;-81
2024/03/13 11:48:22;;;;;;;3.70;1.90;;;13.60;87.60;;;;;;5048145;28;20457;-84
2024/03/13 11:51:00;;;;;;;4.50;2.15;;;13.60;87.60;;;;;;5049963;28;20108;-84
2024/03/13 11:53:26;;;;;;;5.28;2.00;;;13.60;87.60;;;;;;5045750;28;20033;-78
2024/03/13 11:55:58;;;;;;;4.55;2.10;;;13.60;87.30;;;;;;5044991;28;20100;-80
2024/03/13 11:58:27;;;;;;;4.20;2.13;;;13.80;87.50;;;;;;5045680;28;20035;-76
2024/03/13 12:00:53;;;;;;;4.72;2.20;;;13.90;87.00;;;;;;5045287;28;20075;-76
2024/03/13 12:03:30;;;;;;;3.80;2.03;;;13.90;86.80;;;;;;5051987;28;20021;-79
2024/03/13 12:05:56;;;;;;;7.43;2.20;;;14.00;86.50;;;;;;5043682;28;20037;-79
2024/03/13 12:08:22;;;;;;;6.40;2.05;;;13.90;86.60;;;;;;5047866;28;20109;-76
2024/03/13 12:10:53;;;;;;;4.40;2.00;;;13.80;86.80;;;;;;5046131;28;20021;-76
2024/03/13 12:13:18;;;;;;;7.50;3.00;;;13.80;86.80;;;;;;5044979;28;20032;-77
2024/03/13 12:15:46;;;;;;;3.88;2.25;;;13.90;87.20;;;;;;5040874;28;20110;-80
2024/03/13 12:18:12;;;;;;;2.75;1.77;;;14.00;86.40;;;;;;5049358;28;20396;-78
2024/03/13 12:20:41;;;;;;;3.50;1.52;;;14.10;86.30;;;;;;5042095;28;20029;-83
2024/03/13 12:23:07;;;;;;;3.75;1.70;;;14.00;85.70;;;;;;5050666;28;20056;-79
2024/03/13 12:25:36;;;;;;;5.43;1.90;;;14.10;85.30;;;;;;5049982;28;20141;-80
2024/03/13 12:28:11;;;;;;;3.00;1.60;;;14.10;85.20;;;;;;5043376;28;20464;-82
2024/03/13 12:30:37;;;;;;;4.18;1.80;;;14.20;85.50;;;;;;5050202;28;20583;-85
2024/03/13 12:33:05;;;;;;;5.10;2.00;;;14.50;85.00;;;;;;5049673;28;20055;-80
2024/03/13 12:35:34;;;;;;;3.92;1.70;;;14.60;84.30;;;;;;5046125;28;20048;-86
2024/03/13 12:38:01;;;;;;;3.97;2.15;;;14.60;83.90;;;;;;5044697;28;20028;-80
2024/03/13 12:40:26;;;;;;;3.55;1.90;;;14.60;83.70;;;;;;5049512;28;20508;-82
2024/03/13 12:42:52;;;;;;;5.82;2.25;;;14.60;83.40;;;;;;5050303;28;20044;-82
2024/03/13 12:45:18;;;;;;;7.50;2.58;;;14.50;83.30;;;;;;5051602;28;20033;-83
2024/03/13 12:47:45;;;;;;;4.18;2.00;;;14.50;83.80;;;;;;5047571;28;20040;-87
2024/03/13 12:50:16;;;;;;;5.63;2.30;;;14.40;84.00;;;;;;5047285;28;20044;-82
2024/03/13 12:52:42;;;;;;;5.28;1.92;;;14.40;83.70;;;;;;5052595;28;20084;-82
2024/03/13 12:55:09;;;;;;;4.57;2.05;;;14.60;83.20;;;;;;5055486;28;20095;-84
2024/03/13 12:57:36;;;;;;;8.07;2.63;;;14.60;83.00;;;;;;5052952;28;20413;-78
2024/03/13 13:00:20;;;;;;;8.48;2.92;;;14.60;82.50;;;;;;5057747;28;20039;-80
2024/03/13 13:02:47;;;;;;;5.45;2.47;;;14.60;82.70;;;;;;5050864;28;20025;-81